sensor_id;sensor_type;location;lat;lon;timestamp;P1;durP1;ratioP1;P2;durP2;ratioP2
79147;SDS011;68562;51.600;6.524;2023-06-24T00:00:00;6.2;;;4.2;;
79147;SDS011;68562;51.600;6.524;2023-06-24T00:05:00;6.0;;;4.6;;
79147;SDS011;68562;51.600;6.524;2023-06-24T00:10:00;6.2;;;4.7;;
79147;SDS011;68562;51.600;6.524;2023-06-24T00:15:00;9.4;;;5.6;;
79147;SDS011;68562;51.600;6.524;2023-06-24T00:20:00;6.2;;;4.7;;
79147;SDS011;68562;51.600;6.524;2023-06-24T00:25:00;7.7;;;5.5;;
79147;SDS011;68562;51.600;6.524;2023-06-24T00:30:00;7.5;;;4.7;;
79147;SDS011;68562;51.600;6.524;2023-06-24T00:35:00;6.9;;;5.2;;
79147;SDS011;68562;51.600;6.524;2023-06-24T00:40:00;8.4;;;4.8;;
79147;SDS011;68562;51.600;6.524;2023-06-24T00:45:00;8.3;;;5.2;;
79147;SDS011;68562;51.600;6.524;2023-06-24T00:50:00;7.9;;;4.8;;
79147;SDS011;68562;51.600;6.524;2023-06-24T00:55:00;8.1;;;5.2;;
79147;SDS011;68562;51.600;6.524;2023-06-24T01:00:00;7.8;;;4.9;;
79147;SDS011;68562;51.600;6.524;2023-06-24T01:05:00;6.8;;;5.1;;
79147;SDS011;68562;51.600;6.524;2023-06-24T01:10:00;11.0;;;5.7;;
79147;SDS011;68562;51.600;6.524;2023-06-24T01:15:00;6.8;;;5.4;;
79147;SDS011;68562;51.600;6.524;2023-06-24T01:20:02;8.1;;;5.5;;
79147;SDS011;68562;51.600;6.524;2023-06-24T01:25:02;8.9;;;5.0;;
79147;SDS011;68562;51.600;6.524;2023-06-24T01:30:12;10.0;;;6.1;;
79147;SDS011;68562;51.600;6.524;2023-06-24T01:35:02;7.3;;;5.4;;
79147;SDS011;68562;51.600;6.524;2023-06-24T01:40:02;8.7;;;5.8;;
79147;SDS011;68562;51.600;6.524;2023-06-24T01:45:00;7.9;;;5.7;;
79147;SDS011;68562;51.600;6.524;2023-06-24T01:50:01;7.9;;;5.5;;
79147;SDS011;68562;51.600;6.524;2023-06-24T01:55:00;10.9;;;6.2;;
79147;SDS011;68562;51.600;6.524;2023-06-24T02:00:00;8.0;;;6.5;;
79147;SDS011;68562;51.600;6.524;2023-06-24T02:05:00;9.1;;;5.6;;
79147;SDS011;68562;51.600;6.524;2023-06-24T02:10:00;8.9;;;5.9;;
79147;SDS011;68562;51.600;6.524;2023-06-24T02:15:00;11.7;;;6.3;;
79147;SDS011;68562;51.600;6.524;2023-06-24T02:20:00;8.9;;;5.4;;
79147;SDS011;68562;51.600;6.524;2023-06-24T02:25:00;8.1;;;5.6;;
79147;SDS011;68562;51.600;6.524;2023-06-24T02:30:00;10.0;;;5.9;;
79147;SDS011;68562;51.600;6.524;2023-06-24T02:35:00;7.0;;;5.9;;
79147;SDS011;68562;51.600;6.524;2023-06-24T02:40:00;11.3;;;6.5;;
79147;SDS011;68562;51.600;6.524;2023-06-24T02:45:00;9.2;;;5.3;;
79147;SDS011;68562;51.600;6.524;2023-06-24T02:50:00;8.2;;;5.9;;
79147;SDS011;68562;51.600;6.524;2023-06-24T02:55:00;9.7;;;6.2;;
79147;SDS011;68562;51.600;6.524;2023-06-24T03:00:00;8.0;;;5.9;;
79147;SDS011;68562;51.600;6.524;2023-06-24T03:05:00;11.0;;;6.1;;
79147;SDS011;68562;51.600;6.524;2023-06-24T03:10:01;9.2;;;6.3;;
79147;SDS011;68562;51.600;6.524;2023-06-24T03:15:00;11.4;;;6.7;;
79147;SDS011;68562;51.600;6.524;2023-06-24T03:20:00;9.2;;;7.0;;
79147;SDS011;68562;51.600;6.524;2023-06-24T03:25:00;10.9;;;7.3;;
79147;SDS011;68562;51.600;6.524;2023-06-24T03:30:00;10.5;;;6.4;;
79147;SDS011;68562;51.600;6.524;2023-06-24T03:35:00;10.2;;;6.2;;
79147;SDS011;68562;51.600;6.524;2023-06-24T03:40:00;8.6;;;5.5;;
79147;SDS011;68562;51.600;6.524;2023-06-24T03:45:01;12.7;;;7.0;;
79147;SDS011;68562;51.600;6.524;2023-06-24T03:50:00;11.3;;;6.7;;
79147;SDS011;68562;51.600;6.524;2023-06-24T03:55:00;10.5;;;7.3;;
79147;SDS011;68562;51.600;6.524;2023-06-24T04:00:00;10.8;;;7.0;;
79147;SDS011;68562;51.600;6.524;2023-06-24T04:05:00;10.5;;;7.1;;
79147;SDS011;68562;51.600;6.524;2023-06-24T04:10:01;13.6;;;6.9;;
79147;SDS011;68562;51.600;6.524;2023-06-24T04:15:00;12.9;;;7.0;;
79147;SDS011;68562;51.600;6.524;2023-06-24T04:20:00;11.3;;;7.6;;
79147;SDS011;68562;51.600;6.524;2023-06-24T04:25:00;11.3;;;6.6;;
79147;SDS011;68562;51.600;6.524;2023-06-24T04:30:00;12.7;;;7.3;;
79147;SDS011;68562;51.600;6.524;2023-06-24T04:35:00;11.9;;;7.6;;
79147;SDS011;68562;51.600;6.524;2023-06-24T04:40:00;9.3;;;6.3;;
79147;SDS011;68562;51.600;6.524;2023-06-24T04:45:00;14.0;;;7.5;;
79147;SDS011;68562;51.600;6.524;2023-06-24T04:50:00;10.6;;;8.2;;
79147;SDS011;68562;51.600;6.524;2023-06-24T04:55:00;12.0;;;8.2;;
79147;SDS011;68562;51.600;6.524;2023-06-24T05:00:00;15.4;;;8.1;;
79147;SDS011;68562;51.600;6.524;2023-06-24T05:05:00;11.0;;;7.4;;
79147;SDS011;68562;51.600;6.524;2023-06-24T05:10:00;12.7;;;7.6;;
79147;SDS011;68562;51.600;6.524;2023-06-24T05:15:00;13.7;;;7.9;;
79147;SDS011;68562;51.600;6.524;2023-06-24T05:20:00;12.9;;;7.4;;
79147;SDS011;68562;51.600;6.524;2023-06-24T05:25:00;12.3;;;7.6;;
79147;SDS011;68562;51.600;6.524;2023-06-24T05:35:00;15.1;;;8.9;;
79147;SDS011;68562;51.600;6.524;2023-06-24T05:40:00;12.4;;;7.8;;
79147;SDS011;68562;51.600;6.524;2023-06-24T05:45:00;12.1;;;8.2;;
79147;SDS011;68562;51.600;6.524;2023-06-24T05:50:00;12.4;;;8.2;;
79147;SDS011;68562;51.600;6.524;2023-06-24T05:55:00;13.3;;;8.1;;
79147;SDS011;68562;51.600;6.524;2023-06-24T06:00:00;16.3;;;9.0;;
79147;SDS011;68562;51.600;6.524;2023-06-24T06:05:00;12.4;;;9.1;;
79147;SDS011;68562;51.600;6.524;2023-06-24T06:10:00;14.6;;;10.2;;
79147;SDS011;68562;51.600;6.524;2023-06-24T06:15:00;17.0;;;10.5;;
79147;SDS011;68562;51.600;6.524;2023-06-24T06:20:00;18.2;;;11.8;;
79147;SDS011;68562;51.600;6.524;2023-06-24T06:25:00;21.3;;;12.6;;
79147;SDS011;68562;51.600;6.524;2023-06-24T06:30:00;19.9;;;13.6;;
79147;SDS011;68562;51.600;6.524;2023-06-24T06:35:00;23.6;;;14.8;;
79147;SDS011;68562;51.600;6.524;2023-06-24T06:40:00;19.7;;;13.9;;
79147;SDS011;68562;51.600;6.524;2023-06-24T06:45:00;19.3;;;14.1;;
79147;SDS011;68562;51.600;6.524;2023-06-24T06:50:00;22.5;;;14.2;;
79147;SDS011;68562;51.600;6.524;2023-06-24T06:55:00;17.8;;;13.6;;
79147;SDS011;68562;51.600;6.524;2023-06-24T07:00:00;21.1;;;14.4;;
79147;SDS011;68562;51.600;6.524;2023-06-24T07:05:00;19.2;;;13.6;;
79147;SDS011;68562;51.600;6.524;2023-06-24T07:10:00;14.2;;;8.4;;
79147;SDS011;68562;51.600;6.524;2023-06-24T07:15:00;14.2;;;8.3;;
79147;SDS011;68562;51.600;6.524;2023-06-24T07:20:00;14.4;;;9.5;;
79147;SDS011;68562;51.600;6.524;2023-06-24T07:25:00;13.9;;;10.9;;
79147;SDS011;68562;51.600;6.524;2023-06-24T07:30:00;15.6;;;11.4;;
79147;SDS011;68562;51.600;6.524;2023-06-24T07:35:00;16.6;;;11.5;;
79147;SDS011;68562;51.600;6.524;2023-06-24T07:40:00;16.5;;;11.6;;
79147;SDS011;68562;51.600;6.524;2023-06-24T07:45:00;14.9;;;11.1;;
79147;SDS011;68562;51.600;6.524;2023-06-24T07:50:00;13.5;;;9.4;;
79147;SDS011;68562;51.600;6.524;2023-06-24T07:55:00;15.3;;;10.2;;
79147;SDS011;68562;51.600;6.524;2023-06-24T08:00:00;10.2;;;7.4;;
79147;SDS011;68562;51.600;6.524;2023-06-24T08:05:00;9.2;;;6.9;;
79147;SDS011;68562;51.600;6.524;2023-06-24T08:10:00;8.9;;;5.0;;
79147;SDS011;68562;51.600;6.524;2023-06-24T08:15:00;9.9;;;4.7;;
79147;SDS011;68562;51.600;6.524;2023-06-24T08:20:00;7.7;;;5.6;;
79147;SDS011;68562;51.600;6.524;2023-06-24T08:25:00;8.0;;;6.0;;
79147;SDS011;68562;51.600;6.524;2023-06-24T08:30:00;10.6;;;6.7;;
79147;SDS011;68562;51.600;6.524;2023-06-24T08:35:00;11.8;;;8.1;;
79147;SDS011;68562;51.600;6.524;2023-06-24T08:40:00;9.8;;;6.4;;
79147;SDS011;68562;51.600;6.524;2023-06-24T08:45:00;8.9;;;6.4;;
79147;SDS011;68562;51.600;6.524;2023-06-24T08:50:01;9.3;;;6.2;;
79147;SDS011;68562;51.600;6.524;2023-06-24T08:55:00;9.7;;;6.1;;
79147;SDS011;68562;51.600;6.524;2023-06-24T09:00:00;0;;;0;;
79147;SDS011;68562;51.600;6.524;2023-06-24T09:05:00;10.6;;;7.5;;
79147;SDS011;68562;51.600;6.524;2023-06-24T09:10:00;9.4;;;6.9;;
79147;SDS011;68562;51.600;6.524;2023-06-24T09:15:00;10.5;;;6.3;;
79147;SDS011;68562;51.600;6.524;2023-06-24T09:20:03;11.4;;;5.8;;
79147;SDS011;68562;51.600;6.524;2023-06-24T09:25:00;6.9;;;4.7;;
79147;SDS011;68562;51.600;6.524;2023-06-24T09:30:00;9.9;;;5.3;;
79147;SDS011;68562;51.600;6.524;2023-06-24T09:35:02;7.8;;;5.1;;
79147;SDS011;68562;51.600;6.524;2023-06-24T09:40:00;9.5;;;5.9;;
79147;SDS011;68562;51.600;6.524;2023-06-24T09:45:04;7.5;;;5.3;;
79147;SDS011;68562;51.600;6.524;2023-06-24T09:50:00;6.5;;;4.1;;
79147;SDS011;68562;51.600;6.524;2023-06-24T09:55:00;8.7;;;4.5;;
79147;SDS011;68562;51.600;6.524;2023-06-24T10:00:00;6.6;;;4.3;;
79147;SDS011;68562;51.600;6.524;2023-06-24T10:05:00;6.1;;;4.6;;
79147;SDS011;68562;51.600;6.524;2023-06-24T10:10:01;5.2;;;3.9;;
79147;SDS011;68562;51.600;6.524;2023-06-24T10:15:00;4.5;;;3.5;;
79147;SDS011;68562;51.600;6.524;2023-06-24T10:20:03;5.1;;;3.7;;
79147;SDS011;68562;51.600;6.524;2023-06-24T10:25:00;7.4;;;4.1;;
79147;SDS011;68562;51.600;6.524;2023-06-24T10:30:02;9.5;;;3.5;;
79147;SDS011;68562;51.600;6.524;2023-06-24T10:35:00;4.8;;;2.9;;
79147;SDS011;68562;51.600;6.524;2023-06-24T10:40:00;5.3;;;3.6;;
79147;SDS011;68562;51.600;6.524;2023-06-24T10:45:01;6.4;;;4.5;;
79147;SDS011;68562;51.600;6.524;2023-06-24T10:50:00;6.2;;;3.9;;
79147;SDS011;68562;51.600;6.524;2023-06-24T10:55:00;4.5;;;2.9;;
79147;SDS011;68562;51.600;6.524;2023-06-24T11:00:00;4.3;;;3.3;;
79147;SDS011;68562;51.600;6.524;2023-06-24T11:05:01;4.1;;;2.6;;
79147;SDS011;68562;51.600;6.524;2023-06-24T11:10:01;3.8;;;2.5;;
79147;SDS011;68562;51.600;6.524;2023-06-24T11:15:02;3.2;;;2.6;;
79147;SDS011;68562;51.600;6.524;2023-06-24T11:20:00;6.9;;;2.5;;
79147;SDS011;68562;51.600;6.524;2023-06-24T11:25:00;2.5;;;2.3;;
79147;SDS011;68562;51.600;6.524;2023-06-24T11:30:00;4.4;;;2.5;;
79147;SDS011;68562;51.600;6.524;2023-06-24T11:35:00;2.7;;;2.0;;
79147;SDS011;68562;51.600;6.524;2023-06-24T11:40:01;4.0;;;2.3;;
79147;SDS011;68562;51.600;6.524;2023-06-24T11:45:00;3.5;;;2.0;;
79147;SDS011;68562;51.600;6.524;2023-06-24T11:50:00;5.5;;;2.3;;
79147;SDS011;68562;51.600;6.524;2023-06-24T11:55:00;2.7;;;2.0;;
79147;SDS011;68562;51.600;6.524;2023-06-24T12:00:00;2.7;;;2.1;;
79147;SDS011;68562;51.600;6.524;2023-06-24T12:05:01;2.6;;;1.9;;
79147;SDS011;68562;51.600;6.524;2023-06-24T12:10:00;2.2;;;1.7;;
79147;SDS011;68562;51.600;6.524;2023-06-24T12:15:00;2.6;;;1.6;;
79147;SDS011;68562;51.600;6.524;2023-06-24T12:20:00;2.2;;;1.7;;
79147;SDS011;68562;51.600;6.524;2023-06-24T12:25:00;2.8;;;1.6;;
79147;SDS011;68562;51.600;6.524;2023-06-24T12:30:00;1.9;;;1.5;;
79147;SDS011;68562;51.600;6.524;2023-06-24T12:35:00;2.3;;;1.8;;
79147;SDS011;68562;51.600;6.524;2023-06-24T12:40:00;2.1;;;1.5;;
79147;SDS011;68562;51.600;6.524;2023-06-24T12:45:00;3.1;;;1.8;;
79147;SDS011;68562;51.600;6.524;2023-06-24T12:50:00;2.3;;;1.6;;
79147;SDS011;68562;51.600;6.524;2023-06-24T12:55:00;3.9;;;1.6;;
79147;SDS011;68562;51.600;6.524;2023-06-24T13:00:00;2.9;;;1.5;;
79147;SDS011;68562;51.600;6.524;2023-06-24T13:05:00;2.2;;;1.5;;
79147;SDS011;68562;51.600;6.524;2023-06-24T13:10:00;2.8;;;1.6;;
79147;SDS011;68562;51.600;6.524;2023-06-24T13:15:00;3.0;;;1.8;;
79147;SDS011;68562;51.600;6.524;2023-06-24T13:20:00;2.2;;;1.6;;
79147;SDS011;68562;51.600;6.524;2023-06-24T13:25:00;2.6;;;1.4;;
79147;SDS011;68562;51.600;6.524;2023-06-24T13:30:00;3.6;;;1.8;;
79147;SDS011;68562;51.600;6.524;2023-06-24T13:35:00;5.8;;;5.2;;
79147;SDS011;68562;51.600;6.524;2023-06-24T13:40:00;5.3;;;3.8;;
79147;SDS011;68562;51.600;6.524;2023-06-24T13:45:00;2.9;;;1.7;;
79147;SDS011;68562;51.600;6.524;2023-06-24T13:50:00;1.9;;;1.2;;
79147;SDS011;68562;51.600;6.524;2023-06-24T13:55:00;2.3;;;1.9;;
79147;SDS011;68562;51.600;6.524;2023-06-24T14:00:00;2.7;;;1.3;;
79147;SDS011;68562;51.600;6.524;2023-06-24T14:05:00;2.7;;;1.8;;
79147;SDS011;68562;51.600;6.524;2023-06-24T14:10:00;2.4;;;2.0;;
79147;SDS011;68562;51.600;6.524;2023-06-24T14:15:00;3.4;;;1.8;;
79147;SDS011;68562;51.600;6.524;2023-06-24T14:20:00;5.4;;;2.5;;
79147;SDS011;68562;51.600;6.524;2023-06-24T14:25:00;2.2;;;1.8;;
79147;SDS011;68562;51.600;6.524;2023-06-24T14:30:00;2.4;;;1.6;;
79147;SDS011;68562;51.600;6.524;2023-06-24T14:35:00;2.8;;;1.7;;
79147;SDS011;68562;51.600;6.524;2023-06-24T14:40:00;2.5;;;1.9;;
79147;SDS011;68562;51.600;6.524;2023-06-24T14:45:00;2.5;;;1.7;;
79147;SDS011;68562;51.600;6.524;2023-06-24T14:50:00;2.3;;;1.7;;
79147;SDS011;68562;51.600;6.524;2023-06-24T14:55:00;2.5;;;2.0;;
79147;SDS011;68562;51.600;6.524;2023-06-24T15:00:00;2.5;;;1.6;;
79147;SDS011;68562;51.600;6.524;2023-06-24T15:05:00;2.1;;;1.7;;
79147;SDS011;68562;51.600;6.524;2023-06-24T15:10:00;3.4;;;2.7;;
79147;SDS011;68562;51.600;6.524;2023-06-24T15:15:00;2.1;;;1.7;;
79147;SDS011;68562;51.600;6.524;2023-06-24T15:20:00;2.9;;;1.9;;
79147;SDS011;68562;51.600;6.524;2023-06-24T15:25:00;3.3;;;1.8;;
79147;SDS011;68562;51.600;6.524;2023-06-24T15:30:00;3.4;;;2.2;;
79147;SDS011;68562;51.600;6.524;2023-06-24T15:35:01;3.2;;;1.9;;
79147;SDS011;68562;51.600;6.524;2023-06-24T15:40:00;2.4;;;1.7;;
79147;SDS011;68562;51.600;6.524;2023-06-24T15:45:00;2.2;;;1.7;;
79147;SDS011;68562;51.600;6.524;2023-06-24T15:50:00;2.1;;;1.7;;
79147;SDS011;68562;51.600;6.524;2023-06-24T15:55:00;3.1;;;2.1;;
79147;SDS011;68562;51.600;6.524;2023-06-24T16:00:00;2.9;;;1.9;;
79147;SDS011;68562;51.600;6.524;2023-06-24T16:05:00;4.7;;;1.9;;
79147;SDS011;68562;51.600;6.524;2023-06-24T16:10:00;5.6;;;2.0;;
79147;SDS011;68562;51.600;6.524;2023-06-24T16:15:00;5.9;;;2.1;;
79147;SDS011;68562;51.600;6.524;2023-06-24T16:20:00;3.1;;;2.1;;
79147;SDS011;68562;51.600;6.524;2023-06-24T16:25:00;3.1;;;2.1;;
79147;SDS011;68562;51.600;6.524;2023-06-24T16:30:00;3.0;;;1.9;;
79147;SDS011;68562;51.600;6.524;2023-06-24T16:35:00;3.1;;;2.4;;
79147;SDS011;68562;51.600;6.524;2023-06-24T16:40:00;7.5;;;2.3;;
79147;SDS011;68562;51.600;6.524;2023-06-24T16:45:00;3.3;;;2.1;;
79147;SDS011;68562;51.600;6.524;2023-06-24T16:50:00;2.9;;;2.3;;
79147;SDS011;68562;51.600;6.524;2023-06-24T16:55:00;3.5;;;2.2;;
79147;SDS011;68562;51.600;6.524;2023-06-24T17:00:00;4.0;;;2.2;;
79147;SDS011;68562;51.600;6.524;2023-06-24T17:05:00;2.8;;;2.0;;
79147;SDS011;68562;51.600;6.524;2023-06-24T17:10:00;2.9;;;2.3;;
79147;SDS011;68562;51.600;6.524;2023-06-24T17:15:01;2.5;;;2.1;;
79147;SDS011;68562;51.600;6.524;2023-06-24T17:20:00;2.6;;;1.8;;
79147;SDS011;68562;51.600;6.524;2023-06-24T17:25:00;3.1;;;2.2;;
79147;SDS011;68562;51.600;6.524;2023-06-24T17:30:00;2.9;;;1.8;;
79147;SDS011;68562;51.600;6.524;2023-06-24T17:35:00;2.4;;;1.8;;
79147;SDS011;68562;51.600;6.524;2023-06-24T17:40:00;3.0;;;2.2;;
79147;SDS011;68562;51.600;6.524;2023-06-24T17:45:00;2.9;;;2.1;;
79147;SDS011;68562;51.600;6.524;2023-06-24T17:50:00;2.9;;;1.8;;
79147;SDS011;68562;51.600;6.524;2023-06-24T17:55:00;3.3;;;2.0;;
79147;SDS011;68562;51.600;6.524;2023-06-24T18:00:00;4.3;;;2.3;;
79147;SDS011;68562;51.600;6.524;2023-06-24T18:05:00;3.7;;;2.1;;
79147;SDS011;68562;51.600;6.524;2023-06-24T18:10:00;5.7;;;2.1;;
79147;SDS011;68562;51.600;6.524;2023-06-24T18:15:00;2.6;;;2.0;;
79147;SDS011;68562;51.600;6.524;2023-06-24T18:20:00;2.9;;;2.1;;
79147;SDS011;68562;51.600;6.524;2023-06-24T18:25:00;2.9;;;1.9;;
79147;SDS011;68562;51.600;6.524;2023-06-24T18:30:00;2.3;;;1.9;;
79147;SDS011;68562;51.600;6.524;2023-06-24T18:35:00;3.2;;;1.9;;
79147;SDS011;68562;51.600;6.524;2023-06-24T18:40:00;3.4;;;2.0;;
79147;SDS011;68562;51.600;6.524;2023-06-24T18:45:00;3.9;;;2.3;;
79147;SDS011;68562;51.600;6.524;2023-06-24T18:50:00;4.5;;;2.6;;
79147;SDS011;68562;51.600;6.524;2023-06-24T18:55:00;6.0;;;3.1;;
79147;SDS011;68562;51.600;6.524;2023-06-24T19:00:00;3.1;;;2.0;;
79147;SDS011;68562;51.600;6.524;2023-06-24T19:05:00;4.0;;;2.2;;
79147;SDS011;68562;51.600;6.524;2023-06-24T19:10:00;2.5;;;2.3;;
79147;SDS011;68562;51.600;6.524;2023-06-24T19:15:00;4.3;;;2.2;;
79147;SDS011;68562;51.600;6.524;2023-06-24T19:20:00;4.7;;;2.2;;
79147;SDS011;68562;51.600;6.524;2023-06-24T19:25:00;4.5;;;2.7;;
79147;SDS011;68562;51.600;6.524;2023-06-24T19:30:00;4.2;;;2.5;;
79147;SDS011;68562;51.600;6.524;2023-06-24T19:35:00;3.7;;;2.9;;
79147;SDS011;68562;51.600;6.524;2023-06-24T19:40:00;3.4;;;2.4;;
79147;SDS011;68562;51.600;6.524;2023-06-24T19:45:00;4.0;;;2.2;;
79147;SDS011;68562;51.600;6.524;2023-06-24T19:50:00;3.9;;;2.5;;
79147;SDS011;68562;51.600;6.524;2023-06-24T19:55:00;5.3;;;2.6;;
79147;SDS011;68562;51.600;6.524;2023-06-24T20:00:00;9.1;;;5.6;;
79147;SDS011;68562;51.600;6.524;2023-06-24T20:05:00;5.6;;;3.0;;
79147;SDS011;68562;51.600;6.524;2023-06-24T20:10:00;4.1;;;3.1;;
79147;SDS011;68562;51.600;6.524;2023-06-24T20:15:00;4.0;;;2.8;;
79147;SDS011;68562;51.600;6.524;2023-06-24T20:20:00;3.8;;;2.5;;
79147;SDS011;68562;51.600;6.524;2023-06-24T20:25:00;8.3;;;3.5;;
79147;SDS011;68562;51.600;6.524;2023-06-24T20:30:00;5.8;;;2.6;;
79147;SDS011;68562;51.600;6.524;2023-06-24T20:35:00;3.4;;;2.4;;
79147;SDS011;68562;51.600;6.524;2023-06-24T20:40:00;4.8;;;2.7;;
79147;SDS011;68562;51.600;6.524;2023-06-24T20:45:00;4.7;;;3.1;;
79147;SDS011;68562;51.600;6.524;2023-06-24T20:50:00;4.9;;;3.0;;
79147;SDS011;68562;51.600;6.524;2023-06-24T20:55:00;7.3;;;3.4;;
79147;SDS011;68562;51.600;6.524;2023-06-24T21:00:00;4.0;;;2.6;;
79147;SDS011;68562;51.600;6.524;2023-06-24T21:05:00;4.9;;;2.9;;
79147;SDS011;68562;51.600;6.524;2023-06-24T21:10:00;5.5;;;3.0;;
79147;SDS011;68562;51.600;6.524;2023-06-24T21:15:00;4.4;;;3.0;;
79147;SDS011;68562;51.600;6.524;2023-06-24T21:20:00;6.1;;;3.2;;
79147;SDS011;68562;51.600;6.524;2023-06-24T21:25:00;4.1;;;2.5;;
79147;SDS011;68562;51.600;6.524;2023-06-24T21:30:00;4.3;;;3.1;;
79147;SDS011;68562;51.600;6.524;2023-06-24T21:35:00;4.0;;;2.9;;
79147;SDS011;68562;51.600;6.524;2023-06-24T21:40:00;5.2;;;3.2;;
79147;SDS011;68562;51.600;6.524;2023-06-24T21:45:00;4.4;;;3.1;;
79147;SDS011;68562;51.600;6.524;2023-06-24T21:50:00;4.8;;;3.0;;
79147;SDS011;68562;51.600;6.524;2023-06-24T21:55:00;4.0;;;2.5;;
79147;SDS011;68562;51.600;6.524;2023-06-24T22:00:00;4.6;;;2.8;;
79147;SDS011;68562;51.600;6.524;2023-06-24T22:05:00;4.4;;;2.6;;
79147;SDS011;68562;51.600;6.524;2023-06-24T22:10:00;4.9;;;2.6;;
79147;SDS011;68562;51.600;6.524;2023-06-24T22:15:00;3.2;;;2.6;;
79147;SDS011;68562;51.600;6.524;2023-06-24T22:20:00;3.9;;;2.7;;
79147;SDS011;68562;51.600;6.524;2023-06-24T22:25:00;4.5;;;3.0;;
79147;SDS011;68562;51.600;6.524;2023-06-24T22:30:00;9.7;;;3.3;;
79147;SDS011;68562;51.600;6.524;2023-06-24T22:35:00;5.9;;;3.4;;
79147;SDS011;68562;51.600;6.524;2023-06-24T22:40:00;6.1;;;3.1;;
79147;SDS011;68562;51.600;6.524;2023-06-24T22:45:00;5.0;;;3.4;;
79147;SDS011;68562;51.600;6.524;2023-06-24T22:50:00;5.2;;;4.3;;
79147;SDS011;68562;51.600;6.524;2023-06-24T22:55:00;5.3;;;3.5;;
79147;SDS011;68562;51.600;6.524;2023-06-24T23:00:00;5.4;;;3.6;;
79147;SDS011;68562;51.600;6.524;2023-06-24T23:05:00;6.3;;;3.6;;
79147;SDS011;68562;51.600;6.524;2023-06-24T23:10:00;6.2;;;3.5;;
79147;SDS011;68562;51.600;6.524;2023-06-24T23:15:00;6.6;;;3.6;;
79147;SDS011;68562;51.600;6.524;2023-06-24T23:20:00;7.7;;;4.1;;
79147;SDS011;68562;51.600;6.524;2023-06-24T23:25:00;6.3;;;3.7;;
79147;SDS011;68562;51.600;6.524;2023-06-24T23:30:00;7.0;;;4.0;;
79147;SDS011;68562;51.600;6.524;2023-06-24T23:35:00;6.3;;;4.1;;
79147;SDS011;68562;51.600;6.524;2023-06-24T23:40:00;5.3;;;3.9;;
79147;SDS011;68562;51.600;6.524;2023-06-24T23:45:00;7.3;;;4.6;;
79147;SDS011;68562;51.600;6.524;2023-06-24T23:50:00;5.5;;;3.6;;
79147;SDS011;68562;51.600;6.524;2023-06-24T23:55:00;6.2;;;3.7;;
